Time;durP1;ratioP1;P1;durP2;ratioP2;P2;SDS_P1;SDS_P2;PMS_P1;PMS_P2;Temp;Humidity;BMP_temperature;BMP_pressure;BME280_temperature;BME280_humidity;BME280_pressure;Samples;Min_cycle;Max_cycle;Signal;HPM_P1;HPM_P2
2022/08/26 00:01:09;;;;;;;;;;;;;;;-155.54;100.00;57697.75;4995154;28;19960;-61
2022/08/26 00:03:34;;;;;;;;;;;;;;;-155.54;100.00;57697.75;4992359;28;19972;-61
2022/08/26 00:05:59;;;;;;;;;;;;;;;-155.54;100.00;57697.75;4994004;28;19922;-62
2022/08/26 00:08:25;;;;;;;;;;;;;;;-155.54;100.00;57697.75;4997787;28;19972;-61
2022/08/26 00:10:50;;;;;;;;;;;;;;;-155.54;100.00;57697.75;4997673;28;19965;-60
2022/08/26 00:13:15;;;;;;;;;;;;;;;-155.54;100.00;57697.75;4994225;28;20113;-63
2022/08/26 00:15:40;;;;;;;;;;;;;;;-155.54;100.00;57697.75;5001143;28;20011;-61
2022/08/26 00:18:06;;;;;;;;;;;;;;;-155.54;100.00;57697.75;4995128;28;19922;-63
2022/08/26 00:20:31;;;;;;;;;;;;;;;-155.54;100.00;57697.75;5000559;28;19921;-61
2022/08/26 00:22:56;;;;;;;;;;;;;;;-155.54;100.00;57697.75;4996055;28;19937;-60
2022/08/26 00:25:22;;;;;;;;;;;;;;;-155.54;100.00;57697.75;4993944;28;19926;-62
2022/08/26 00:27:47;;;;;;;;;;;;;;;-155.54;100.00;57697.75;4997919;28;20438;-62
2022/08/26 00:30:13;;;;;;;;;;;;;;;-155.54;100.00;57697.75;4994425;28;19929;-63
2022/08/26 00:32:39;;;;;;;;;;;;;;;-155.54;100.00;57697.75;4999451;28;19922;-62
2022/08/26 00:35:04;;;;;;;;;;;;;;;-155.54;100.00;57697.75;4995789;28;19918;-62
2022/08/26 00:37:29;;;;;;;;;;;;;;;-155.54;100.00;57697.75;4998521;28;19917;-63
2022/08/26 00:39:54;;;;;;;;;;;;;;;-155.54;100.00;57697.75;4995149;28;19971;-61
2022/08/26 00:42:20;;;;;;;;;;;;;;;-155.54;100.00;57697.75;5000906;28;20003;-63
2022/08/26 00:44:45;;;;;;;;;;;;;;;-155.54;100.00;57697.75;5000647;28;19985;-63
2022/08/26 00:47:15;;;;;;;;;;;;;;;-155.54;100.00;57697.75;5001627;28;19913;-62
2022/08/26 00:49:41;;;;;;;;;;;;;;;-155.54;100.00;57697.75;4983336;28;19921;-63
2022/08/26 00:52:07;;;;;;;;;;;;;;;-155.54;100.00;57697.75;4983489;28;19917;-62
2022/08/26 00:54:33;;;;;;;;;;;;;;;-155.54;100.00;57697.75;4993663;28;20442;-61
2022/08/26 00:56:59;;;;;;;;;;;;;;;-155.54;100.00;57697.75;4980841;28;19928;-63
2022/08/26 00:59:25;;;;;;;;;;;;;;;-155.54;100.00;57697.75;5000118;28;20043;-62
2022/08/26 01:01:50;;;;;;;;;;;;;;;-155.54;100.00;57697.75;5000815;28;20433;-62
2022/08/26 01:04:16;;;;;;;;;;;;;;;-155.54;100.00;57697.75;4999649;28;19925;-62
2022/08/26 01:06:42;;;;;;;;;;;;;;;-155.54;100.00;57697.75;4999041;28;20257;-63
2022/08/26 01:09:07;;;;;;;;;;;;;;;-155.54;100.00;57697.75;5000903;28;20527;-63
2022/08/26 01:11:32;;;;;;;;;;;;;;;-155.54;100.00;57697.75;5002528;28;19917;-62
2022/08/26 01:13:58;;;;;;;;;;;;;;;-155.54;100.00;57697.75;4999437;28;19933;-61
2022/08/26 01:16:26;;;;;;;;;;;;;;;-155.54;100.00;57697.75;5001610;28;19996;-63
2022/08/26 01:18:52;;;;;;;;;;;;;;;-155.54;100.00;57697.75;4995728;28;20385;-61
2022/08/26 01:21:26;;;;;;;;;;;;;;;-155.54;100.00;57697.75;5001741;28;19929;-62
2022/08/26 01:23:51;;;;;;;;;;;;;;;-155.54;100.00;57697.75;4982784;28;19948;-62
2022/08/26 01:26:35;;;;;;;;;;;;;;;-155.54;100.00;57697.75;4983626;28;19929;-63
2022/08/26 01:29:01;;;;;;;;;;;;;;;-155.54;100.00;57697.75;4995312;28;20020;-63
2022/08/26 01:31:28;;;;;;;;;;;;;;;-155.54;100.00;57697.75;5000451;28;19957;-62
2022/08/26 01:34:02;;;;;;;;;;;;;;;-155.54;100.00;57697.75;5001608;28;19925;-63
2022/08/26 01:36:28;;;;;;;;;;;;;;;-155.54;100.00;57697.75;5001605;28;19930;-62
2022/08/26 01:38:53;;;;;;;;;;;;;;;-155.54;100.00;57697.75;4981866;28;19928;-63
2022/08/26 01:41:18;;;;;;;;;;;;;;;-155.54;100.00;57697.75;4981752;28;20357;-61
2022/08/26 01:43:44;;;;;;;;;;;;;;;-155.54;100.00;57697.75;5002243;28;19921;-63
2022/08/26 01:46:10;;;;;;;;;;;;;;;-155.54;100.00;57697.75;4984192;28;20333;-63
2022/08/26 01:48:35;;;;;;;;;;;;;;;-155.54;100.00;57697.75;4984293;28;19923;-62
2022/08/26 01:51:01;;;;;;;;;;;;;;;-155.54;100.00;57697.75;4983134;28;20073;-63
2022/08/26 01:53:26;;;;;;;;;;;;;;;-155.54;100.00;57697.75;4982637;28;19932;-64
2022/08/26 01:55:53;;;;;;;;;;;;;;;-155.54;100.00;57697.75;5001492;28;20298;-61
2022/08/26 01:58:23;;;;;;;;;;;;;;;-155.54;100.00;57697.75;4980284;28;20456;-62
2022/08/26 02:00:48;;;;;;;;;;;;;;;-155.54;100.00;57697.75;4982154;28;19918;-61
2022/08/26 02:03:17;;;;;;;;;;;;;;;-155.54;100.00;57697.75;5001285;28;19917;-63
2022/08/26 02:05:53;;;;;;;;;;;;;;;-155.54;100.00;57697.75;4984627;28;19930;-63
2022/08/26 02:08:20;;;;;;;;;;;;;;;-155.54;100.00;57697.75;4999025;28;19921;-61
2022/08/26 02:10:46;;;;;;;;;;;;;;;-155.54;100.00;57697.75;4983237;28;19917;-61
2022/08/26 02:13:11;;;;;;;;;;;;;;;-155.54;100.00;57697.75;5001598;28;20389;-63
2022/08/26 02:15:36;;;;;;;;;;;;;;;-155.54;100.00;57697.75;5002105;28;20370;-61
2022/08/26 02:18:02;;;;;;;;;;;;;;;-155.54;100.00;57697.75;4965557;28;19926;-63
2022/08/26 02:20:28;;;;;;;;;;;;;;;-155.54;100.00;57697.75;4999331;28;19917;-63
2022/08/26 02:22:53;;;;;;;;;;;;;;;-155.54;100.00;57697.75;5000560;28;19925;-62
2022/08/26 02:25:33;;;;;;;;;;;;;;;-155.54;100.00;57697.75;4999245;28;19931;-63
2022/08/26 02:27:59;;;;;;;;;;;;;;;-155.54;100.00;57697.75;4998228;28;19922;-62
2022/08/26 02:30:25;;;;;;;;;;;;;;;-155.54;100.00;57697.75;4984191;28;19922;-61
2022/08/26 02:32:50;;;;;;;;;;;;;;;-155.54;100.00;57697.75;4996280;28;19972;-62
2022/08/26 02:35:16;;;;;;;;;;;;;;;-155.54;100.00;57697.75;5002578;28;19921;-62
2022/08/26 02:37:41;;;;;;;;;;;;;;;-155.54;100.00;57697.75;5001498;28;19925;-62
2022/08/26 02:40:07;;;;;;;;;;;;;;;-155.54;100.00;57697.75;4998816;28;20386;-61
2022/08/26 02:42:33;;;;;;;;;;;;;;;-155.54;100.00;57697.75;4999476;28;19930;-61
2022/08/26 02:44:58;;;;;;;;;;;;;;;-155.54;100.00;57697.75;5001146;28;20142;-62
2022/08/26 02:47:24;;;;;;;;;;;;;;;-155.54;100.00;57697.75;4999870;28;20087;-62
2022/08/26 02:49:49;;;;;;;;;;;;;;;-155.54;100.00;57697.75;4999683;28;19921;-62
2022/08/26 02:52:14;;;;;;;;;;;;;;;-155.54;100.00;57697.75;4998224;28;20322;-61
2022/08/26 02:54:40;;;;;;;;;;;;;;;-155.54;100.00;57697.75;5001310;28;19917;-62
2022/08/26 02:57:05;;;;;;;;;;;;;;;-155.54;100.00;57697.75;4998671;28;19921;-62
2022/08/26 02:59:30;;;;;;;;;;;;;;;-155.54;100.00;57697.75;4999638;28;20008;-60
2022/08/26 03:01:56;;;;;;;;;;;;;;;-155.54;100.00;57697.75;4999091;28;19995;-62
2022/08/26 03:04:22;;;;;;;;;;;;;;;-155.54;100.00;57697.75;4997892;28;20020;-62
2022/08/26 03:06:49;;;;;;;;;;;;;;;-155.54;100.00;57697.75;5000042;28;19940;-62
2022/08/26 03:09:14;;;;;;;;;;;;;;;-155.54;100.00;57697.75;5002149;28;20202;-63
2022/08/26 03:11:39;;;;;;;;;;;;;;;-155.54;100.00;57697.75;4998154;28;19940;-61
2022/08/26 03:14:05;;;;;;;;;;;;;;;-155.54;100.00;57697.75;5001249;28;19921;-61
2022/08/26 03:16:33;;;;;;;;;;;;;;;-155.54;100.00;57697.75;5000101;28;19965;-63
2022/08/26 03:18:59;;;;;;;;;;;;;;;-155.54;100.00;57697.75;5001790;28;19929;-61
2022/08/26 03:21:24;;;;;;;;;;;;;;;-155.54;100.00;57697.75;4995177;28;19932;-61
2022/08/26 03:23:49;;;;;;;;;;;;;;;-155.54;100.00;57697.75;4997860;28;19969;-63
2022/08/26 03:26:14;;;;;;;;;;;;;;;-155.54;100.00;57697.75;4999363;28;19917;-61
2022/08/26 03:30:38;;;;;;;;;;;;;;;-155.54;100.00;57697.75;4995876;28;19925;-62
2022/08/26 03:31:25;;;;;;;;;;;;;;;-155.54;100.00;57697.75;4995859;28;20003;-63
2022/08/26 03:33:50;;;;;;;;;;;;;;;-155.54;100.00;57697.75;4998165;28;19973;-62
2022/08/26 03:36:15;;;;;;;;;;;;;;;-155.54;100.00;57697.75;5000499;28;19920;-63
2022/08/26 03:38:42;;;;;;;;;;;;;;;-155.54;100.00;57697.75;5001067;28;19961;-61
2022/08/26 03:41:07;;;;;;;;;;;;;;;-155.54;100.00;57697.75;4998006;28;20007;-63
2022/08/26 03:43:32;;;;;;;;;;;;;;;-155.54;100.00;57697.75;5000328;28;19925;-62
2022/08/26 03:45:58;;;;;;;;;;;;;;;-155.54;100.00;57697.75;5000358;28;20535;-62
2022/08/26 03:48:23;;;;;;;;;;;;;;;-155.54;100.00;57697.75;4996654;28;19971;-63
2022/08/26 03:50:48;;;;;;;;;;;;;;;-155.54;100.00;57697.75;4996642;28;19987;-63
2022/08/26 03:53:14;;;;;;;;;;;;;;;-155.54;100.00;57697.75;4997842;28;20410;-63
2022/08/26 03:55:39;;;;;;;;;;;;;;;-155.54;100.00;57697.75;4997252;28;19918;-63
2022/08/26 03:58:05;;;;;;;;;;;;;;;-155.54;100.00;57697.75;4998765;28;19932;-62
2022/08/26 04:00:30;;;;;;;;;;;;;;;-155.54;100.00;57697.75;4999111;28;19964;-62
2022/08/26 04:02:55;;;;;;;;;;;;;;;-155.54;100.00;57697.75;4997535;28;19987;-60
2022/08/26 04:05:21;;;;;;;;;;;;;;;-155.54;100.00;57697.75;4999936;28;20139;-61
2022/08/26 04:07:46;;;;;;;;;;;;;;;-155.54;100.00;57697.75;5000592;28;20157;-59
2022/08/26 04:10:12;;;;;;;;;;;;;;;-155.54;100.00;57697.75;4996267;28;19925;-60
2022/08/26 04:12:37;;;;;;;;;;;;;;;-155.54;100.00;57697.75;4994209;28;19944;-60
2022/08/26 04:15:06;;;;;;;;;;;;;;;-155.54;100.00;57697.75;4998381;28;19917;-61
2022/08/26 04:17:31;;;;;;;;;;;;;;;-155.54;100.00;57697.75;4978216;28;20435;-60
2022/08/26 04:19:56;;;;;;;;;;;;;;;-155.54;100.00;57697.75;4999635;28;20024;-59
2022/08/26 04:22:21;;;;;;;;;;;;;;;-155.54;100.00;57697.75;4993334;28;20395;-61
2022/08/26 04:24:47;;;;;;;;;;;;;;;-155.54;100.00;57697.75;4995565;28;20464;-59
2022/08/26 04:27:12;;;;;;;;;;;;;;;-155.54;100.00;57697.75;4994704;28;19960;-59
2022/08/26 04:29:40;;;;;;;;;;;;;;;-155.54;100.00;57697.75;4989460;28;20192;-61
2022/08/26 04:32:06;;;;;;;;;;;;;;;-155.54;100.00;57697.75;4998549;28;19931;-61
2022/08/26 04:34:31;;;;;;;;;;;;;;;-155.54;100.00;57697.75;4993552;28;19922;-60
2022/08/26 04:36:57;;;;;;;;;;;;;;;-155.54;100.00;57697.75;4999744;28;19992;-60
2022/08/26 04:39:22;;;;;;;;;;;;;;;-155.54;100.00;57697.75;4979697;28;19909;-61
2022/08/26 04:41:47;;;;;;;;;;;;;;;-155.54;100.00;57697.75;5000689;28;20408;-60
2022/08/26 04:44:12;;;;;;;;;;;;;;;-155.54;100.00;57697.75;4999776;28;19929;-61
2022/08/26 04:46:38;;;;;;;;;;;;;;;-155.54;100.00;57697.75;5002034;28;20688;-60
2022/08/26 04:49:07;;;;;;;;;;;;;;;-155.54;100.00;57697.75;5000234;28;19925;-60
2022/08/26 04:51:33;;;;;;;;;;;;;;;-155.54;100.00;57697.75;4996729;28;19922;-59
2022/08/26 04:53:58;;;;;;;;;;;;;;;-155.54;100.00;57697.75;5001524;28;19926;-58
2022/08/26 04:56:24;;;;;;;;;;;;;;;-155.54;100.00;57697.75;5003721;28;20286;-60
2022/08/26 04:58:49;;;;;;;;;;;;;;;-155.54;100.00;57697.75;4998963;28;20264;-61
2022/08/26 05:01:15;;;;;;;;;;;;;;;-155.54;100.00;57697.75;5000013;28;20052;-60
2022/08/26 05:03:40;;;;;;;;;;;;;;;-155.54;100.00;57697.75;4999086;28;19965;-61
2022/08/26 05:06:05;;;;;;;;;;;;;;;-155.54;100.00;57697.75;4999172;28;19948;-59
2022/08/26 05:08:31;;;;;;;;;;;;;;;-155.54;100.00;57697.75;4990992;28;19936;-60
2022/08/26 05:10:56;;;;;;;;;;;;;;;-155.54;100.00;57697.75;5000326;28;20294;-60
2022/08/26 05:13:22;;;;;;;;;;;;;;;-155.54;100.00;57697.75;5002400;28;20016;-59
2022/08/26 05:15:47;;;;;;;;;;;;;;;-155.54;100.00;57697.75;4998769;28;19933;-59
2022/08/26 05:18:12;;;;;;;;;;;;;;;-155.54;100.00;57697.75;5000033;28;19932;-61
2022/08/26 05:20:41;;;;;;;;;;;;;;;-155.54;100.00;57697.75;4996027;28;19921;-60
2022/08/26 05:23:07;;;;;;;;;;;;;;;-155.54;100.00;57697.75;4993952;28;19926;-61
2022/08/26 05:25:35;;;;;;;;;;;;;;;-155.54;100.00;57697.75;4994562;28;20527;-60
2022/08/26 05:28:01;;;;;;;;;;;;;;;-155.54;100.00;57697.75;4993491;28;19926;-62
2022/08/26 05:30:26;;;;;;;;;;;;;;;-155.54;100.00;57697.75;4977298;28;19968;-57
2022/08/26 05:32:51;;;;;;;;;;;;;;;-155.54;100.00;57697.75;4981440;28;20335;-58
2022/08/26 05:35:16;;;;;;;;;;;;;;;-155.54;100.00;57697.75;4998951;28;20107;-58
2022/08/26 05:37:42;;;;;;;;;;;;;;;-155.54;100.00;57697.75;4993004;28;20222;-57
2022/08/26 05:40:07;;;;;;;;;;;;;;;-155.54;100.00;57697.75;4996670;28;19926;-57
2022/08/26 05:42:32;;;;;;;;;;;;;;;-155.54;100.00;57697.75;4998472;28;19928;-58
2022/08/26 05:44:58;;;;;;;;;;;;;;;-155.54;100.00;57697.75;4997532;28;20305;-57
2022/08/26 05:47:23;;;;;;;;;;;;;;;-155.54;100.00;57697.75;5000506;28;20450;-57
2022/08/26 05:49:49;;;;;;;;;;;;;;;-155.54;100.00;57697.75;5001501;28;19917;-57
2022/08/26 05:52:14;;;;;;;;;;;;;;;-155.54;100.00;57697.75;4995202;28;19929;-56
2022/08/26 05:54:39;;;;;;;;;;;;;;;-155.54;100.00;57697.75;4993677;28;19929;-58
2022/08/26 05:57:04;;;;;;;;;;;;;;;-155.54;100.00;57697.75;5000763;28;20480;-59
2022/08/26 05:59:30;;;;;;;;;;;;;;;-155.54;100.00;57697.75;4999646;28;19975;-56
2022/08/26 06:01:55;;;;;;;;;;;;;;;-155.54;100.00;57697.75;4996768;28;20118;-57
2022/08/26 06:04:20;;;;;;;;;;;;;;;-155.54;100.00;57697.75;4999486;28;19925;-56
2022/08/26 06:06:45;;;;;;;;;;;;;;;-155.54;100.00;57697.75;4999316;28;19929;-56
2022/08/26 06:09:11;;;;;;;;;;;;;;;-155.54;100.00;57697.75;4999564;28;20000;-56
2022/08/26 06:11:36;;;;;;;;;;;;;;;-155.54;100.00;57697.75;4998955;28;19941;-56
2022/08/26 06:14:02;;;;;;;;;;;;;;;-155.54;100.00;57697.75;5000901;28;19917;-57
2022/08/26 06:16:27;;;;;;;;;;;;;;;-155.54;100.00;57697.75;4995266;28;19973;-56
2022/08/26 06:18:52;;;;;;;;;;;;;;;-155.54;100.00;57697.75;4998271;28;20190;-56
2022/08/26 06:21:19;;;;;;;;;;;;;;;-155.54;100.00;57697.75;4995941;28;19928;-56
2022/08/26 06:26:29;;;;;;;;;;;;;;;-155.54;100.00;57697.75;4993930;28;19927;-57
2022/08/26 06:28:54;;;;;;;;;;;;;;;-155.54;100.00;57697.75;4990995;28;19914;-57
2022/08/26 06:31:20;;;;;;;;;;;;;;;-155.54;100.00;57697.75;4998060;28;20294;-57
2022/08/26 06:33:45;;;;;;;;;;;;;;;-155.54;100.00;57697.75;4992873;28;20378;-56
2022/08/26 06:36:31;;;;;;;;;;;;;;;-155.54;100.00;57697.75;5000850;28;20015;-57
2022/08/26 06:38:58;;;;;;;;;;;;;;;-155.54;100.00;57697.75;4997511;28;20324;-57
2022/08/26 06:41:23;;;;;;;;;;;;;;;-155.54;100.00;57697.75;4998376;28;20177;-55
2022/08/26 06:43:48;;;;;;;;;;;;;;;-155.54;100.00;57697.75;4999758;28;19936;-57
2022/08/26 06:46:15;;;;;;;;;;;;;;;-155.54;100.00;57697.75;4999441;28;19971;-58
2022/08/26 06:48:41;;;;;;;;;;;;;;;-155.54;100.00;57697.75;4980203;28;19921;-56
2022/08/26 06:51:10;;;;;;;;;;;;;;;-155.54;100.00;57697.75;4999387;28;19935;-58
2022/08/26 06:53:35;;;;;;;;;;;;;;;-155.54;100.00;57697.75;4994839;28;19921;-57
2022/08/26 06:56:01;;;;;;;;;;;;;;;-155.54;100.00;57697.75;4986679;28;19917;-58
2022/08/26 06:58:29;;;;;;;;;;;;;;;-155.54;100.00;57697.75;4991108;28;21440;-57
2022/08/26 07:00:54;;;;;;;;;;;;;;;-155.54;100.00;57697.75;4979330;28;19929;-57
2022/08/26 07:03:20;;;;;;;;;;;;;;;-155.54;100.00;57697.75;4998779;28;19928;-57
2022/08/26 07:05:46;;;;;;;;;;;;;;;-155.54;100.00;57697.75;4995879;28;19933;-58
2022/08/26 07:08:12;;;;;;;;;;;;;;;-155.54;100.00;57697.75;5000040;28;19921;-58
2022/08/26 07:10:37;;;;;;;;;;;;;;;-155.54;100.00;57697.75;4978410;28;20137;-56
2022/08/26 07:13:02;;;;;;;;;;;;;;;-155.54;100.00;57697.75;4997914;28;19964;-57
2022/08/26 07:15:27;;;;;;;;;;;;;;;-155.54;100.00;57697.75;4996777;28;20044;-57
2022/08/26 07:17:53;;;;;;;;;;;;;;;-155.54;100.00;57697.75;4995222;28;20111;-56
2022/08/26 07:20:18;;;;;;;;;;;;;;;-155.54;100.00;57697.75;4998992;28;20433;-56
2022/08/26 07:22:43;;;;;;;;;;;;;;;-155.54;100.00;57697.75;4997464;28;20059;-56
2022/08/26 07:25:09;;;;;;;;;;;;;;;-155.54;100.00;57697.75;4996381;28;19925;-56
2022/08/26 07:27:34;;;;;;;;;;;;;;;-155.54;100.00;57697.75;4996572;28;19929;-56
2022/08/26 07:30:00;;;;;;;;;;;;;;;-155.54;100.00;57697.75;4995435;28;19925;-56
2022/08/26 07:32:25;;;;;;;;;;;;;;;-155.54;100.00;57697.75;4997828;28;20135;-56
2022/08/26 07:34:50;;;;;;;;;;;;;;;-155.54;100.00;57697.75;4997264;28;20005;-56
2022/08/26 07:37:15;;;;;;;;;;;;;;;-155.54;100.00;57697.75;4997663;28;20190;-57
2022/08/26 07:39:41;;;;;;;;;;;;;;;-155.54;100.00;57697.75;5000752;28;20432;-57
2022/08/26 07:42:06;;;;;;;;;;;;;;;-155.54;100.00;57697.75;4998910;28;20021;-56
2022/08/26 07:44:31;;;;;;;;;;;;;;;-155.54;100.00;57697.75;4998357;28;19925;-56
2022/08/26 07:46:57;;;;;;;;;;;;;;;-155.54;100.00;57697.75;4996818;28;19929;-56
2022/08/26 07:49:23;;;;;;;;;;;;;;;-155.54;100.00;57697.75;5000265;28;19929;-57
2022/08/26 07:51:49;;;;;;;;;;;;;;;-155.54;100.00;57697.75;4995798;28;19918;-56
2022/08/26 07:54:15;;;;;;;;;;;;;;;-155.54;100.00;57697.75;4993403;28;20409;-56
2022/08/26 07:56:40;;;;;;;;;;;;;;;-155.54;100.00;57697.75;4995697;28;19932;-56
2022/08/26 07:59:06;;;;;;;;;;;;;;;-155.54;100.00;57697.75;4999506;28;19913;-57
2022/08/26 08:01:31;;;;;;;;;;;;;;;-155.54;100.00;57697.75;4992452;28;20377;-56
2022/08/26 08:03:56;;;;;;;;;;;;;;;-155.54;100.00;57697.75;4992875;28;19917;-58
2022/08/26 08:06:23;;;;;;;;;;;;;;;-155.54;100.00;57697.75;4998606;28;20024;-57
2022/08/26 08:08:49;;;;;;;;;;;;;;;-155.54;100.00;57697.75;4997450;28;19929;-56
2022/08/26 08:11:15;;;;;;;;;;;;;;;-155.54;100.00;57697.75;5004292;28;19972;-56
2022/08/26 08:13:40;;;;;;;;;;;;;;;-155.54;100.00;57697.75;5000689;28;19964;-56
2022/08/26 08:16:06;;;;;;;;;;;;;;;-155.54;100.00;57697.75;5000863;28;20404;-55
2022/08/26 08:18:31;;;;;;;;;;;;;;;-155.54;100.00;57697.75;5004352;28;20052;-57
2022/08/26 08:20:57;;;;;;;;;;;;;;;-155.54;100.00;57697.75;5003612;28;20006;-57
2022/08/26 08:23:22;;;;;;;;;;;;;;;-155.54;100.00;57697.75;4999709;28;19988;-57
2022/08/26 08:25:48;;;;;;;;;;;;;;;-155.54;100.00;57697.75;5002333;28;20136;-56
2022/08/26 08:28:13;;;;;;;;;;;;;;;-155.54;100.00;57697.75;5002173;28;20039;-59
2022/08/26 08:30:39;;;;;;;;;;;;;;;-155.54;100.00;57697.75;5001617;28;19997;-58
2022/08/26 08:33:04;;;;;;;;;;;;;;;-155.54;100.00;57697.75;5002774;28;20245;-58
2022/08/26 08:35:29;;;;;;;;;;;;;;;-155.54;100.00;57697.75;5001856;28;20515;-58
2022/08/26 08:37:55;;;;;;;;;;;;;;;-155.54;100.00;57697.75;5000973;28;20020;-59
2022/08/26 08:40:21;;;;;;;;;;;;;;;-155.54;100.00;57697.75;5002018;28;19973;-56
2022/08/26 08:42:57;;;;;;;;;;;;;;;-155.54;100.00;57697.75;4997329;28;19996;-56
2022/08/26 08:45:30;;;;;;;;;;;;;;;-155.54;100.00;57697.75;4982304;28;20001;-56
2022/08/26 08:47:56;;;;;;;;;;;;;;;-155.54;100.00;57697.75;4982726;28;19932;-56
2022/08/26 08:50:22;;;;;;;;;;;;;;;-155.54;100.00;57697.75;4982214;28;20411;-56
2022/08/26 08:52:56;;;;;;;;;;;;;;;-155.54;100.00;57697.75;4984244;28;20336;-55
2022/08/26 08:55:22;;;;;;;;;;;;;;;-155.54;100.00;57697.75;4985663;28;20485;-56
2022/08/26 08:57:54;;;;;;;;;;;;;;;-155.54;100.00;57697.75;4983735;28;20013;-55
2022/08/26 09:00:21;;;;;;;;;;;;;;;-155.54;100.00;57697.75;4983079;28;19918;-56
2022/08/26 09:02:56;;;;;;;;;;;;;;;-155.54;100.00;57697.75;4981122;28;20025;-56
2022/08/26 09:05:22;;;;;;;;;;;;;;;-155.54;100.00;57697.75;4983035;28;19926;-57
2022/08/26 09:08:04;;;;;;;;;;;;;;;-155.54;100.00;57697.75;4981244;28;20299;-57
2022/08/26 09:10:35;;;;;;;;;;;;;;;-155.54;100.00;57697.75;4978220;28;20409;-57
2022/08/26 09:13:01;;;;;;;;;;;;;;;-155.54;100.00;57697.75;4978114;28;19953;-57
2022/08/26 09:15:33;;;;;;;;;;;;;;;-155.54;100.00;57697.75;4978211;28;20375;-57
2022/08/26 09:18:17;;;;;;;;;;;;;;;-155.54;100.00;57697.75;4975049;28;20403;-57
2022/08/26 09:20:48;;;;;;;;;;;;;;;-155.54;100.00;57697.75;4979817;28;19993;-58
2022/08/26 09:23:13;;;;;;;;;;;;;;;-155.54;100.00;57697.75;4977717;28;20029;-57
2022/08/26 09:25:49;;;;;;;;;;;;;;;-155.54;100.00;57697.75;4980742;28;20059;-57
2022/08/26 09:28:18;;;;;;;;;;;;;;;-155.54;100.00;57697.75;4981107;28;19977;-57
2022/08/26 09:30:44;;;;;;;;;;;;;;;-155.54;100.00;57697.75;4980056;28;19990;-57
2022/08/26 09:33:09;;;;;;;;;;;;;;;-155.54;100.00;57697.75;4978491;28;20378;-57
2022/08/26 09:35:35;;;;;;;;;;;;;;;-155.54;100.00;57697.75;4981551;28;19966;-58
2022/08/26 09:38:00;;;;;;;;;;;;;;;-155.54;100.00;57697.75;4984069;28;20093;-73
2022/08/26 09:40:35;;;;;;;;;;;;;;;-155.54;100.00;57697.75;4978892;28;20382;-72
2022/08/26 09:43:06;;;;;;;;;;;;;;;-155.54;100.00;57697.75;4980483;28;20525;-72
2022/08/26 09:45:32;;;;;;;;;;;;;;;-155.54;100.00;57697.75;4989148;28;20436;-72
2022/08/26 09:47:57;;;;;;;;;;;;;;;-155.54;100.00;57697.75;5003564;28;20069;-72
2022/08/26 09:50:25;;;;;;;;;;;;;;;-155.54;100.00;57697.75;5002895;28;20410;-72
2022/08/26 09:53:03;;;;;;;;;;;;;;;-155.54;100.00;57697.75;5000854;28;20436;-71
2022/08/26 09:55:28;;;;;;;;;;;;;;;-155.54;100.00;57697.75;4999511;28;19976;-71
2022/08/26 09:57:54;;;;;;;;;;;;;;;-155.54;100.00;57697.75;5002097;28;19990;-70
2022/08/26 10:00:23;;;;;;;;;;;;;;;-155.54;100.00;57697.75;5002264;28;20052;-71
2022/08/26 10:02:48;;;;;;;;;;;;;;;-155.54;100.00;57697.75;5000429;28;20096;-70
2022/08/26 10:05:15;;;;;;;;;;;;;;;-155.54;100.00;57697.75;5001783;28;20100;-70
2022/08/26 10:07:47;;;;;;;;;;;;;;;-155.54;100.00;57697.75;4982706;28;19996;-70
2022/08/26 10:10:17;;;;;;;;;;;;;;;-155.54;100.00;57697.75;4997046;28;20063;-69
2022/08/26 10:12:48;;;;;;;;;;;;;;;-155.54;100.00;57697.75;4981135;28;20043;-70
2022/08/26 10:15:13;;;;;;;;;;;;;;;-155.54;100.00;57697.75;4982608;28;20111;-71
2022/08/26 10:17:39;;;;;;;;;;;;;;;-155.54;100.00;57697.75;4998271;28;19988;-70
2022/08/26 10:20:09;;;;;;;;;;;;;;;-155.54;100.00;57697.75;4997170;28;19921;-70
2022/08/26 10:22:40;;;;;;;;;;;;;;;-155.54;100.00;57697.75;5000137;28;20293;-70
2022/08/26 10:25:07;;;;;;;;;;;;;;;-155.54;100.00;57697.75;4999054;28;20003;-70
2022/08/26 10:27:38;;;;;;;;;;;;;;;-155.54;100.00;57697.75;4981736;28;20009;-70
2022/08/26 10:30:05;;;;;;;;;;;;;;;-155.54;100.00;57697.75;4988275;28;20386;-70
2022/08/26 10:32:35;;;;;;;;;;;;;;;-155.54;100.00;57697.75;5002786;28;20435;-70
2022/08/26 10:35:01;;;;;;;;;;;;;;;-155.54;100.00;57697.75;5001420;28;19993;-70
2022/08/26 10:37:31;;;;;;;;;;;;;;;-155.54;100.00;57697.75;5000964;28;19997;-70
2022/08/26 10:39:57;;;;;;;;;;;;;;;-155.54;100.00;57697.75;4982636;28;19974;-71
2022/08/26 10:42:24;;;;;;;;;;;;;;;-155.54;100.00;57697.75;5002150;28;20103;-70
2022/08/26 10:44:50;;;;;;;;;;;;;;;-155.54;100.00;57697.75;4984147;28;19973;-70
2022/08/26 10:47:17;;;;;;;;;;;;;;;-155.54;100.00;57697.75;4985054;28;19965;-70
2022/08/26 10:49:43;;;;;;;;;;;;;;;-155.54;100.00;57697.75;4984665;28;20088;-70
2022/08/26 10:52:26;;;;;;;;;;;;;;;-155.54;100.00;57697.75;5002151;28;20083;-70
2022/08/26 10:54:53;;;;;;;;;;;;;;;-155.54;100.00;57697.75;5001240;28;19991;-70
2022/08/26 10:57:21;;;;;;;;;;;;;;;-155.54;100.00;57697.75;4984214;28;20575;-71
2022/08/26 11:01:40;;;;;;;;;;;;;;;-155.54;100.00;57697.75;5001720;28;19974;-71
2022/08/26 11:02:47;;;;;;;;;;;;;;;-155.54;100.00;57697.75;5000939;28;20083;-71
2022/08/26 11:05:19;;;;;;;;;;;;;;;-155.54;100.00;57697.75;4982035;28;19988;-71
2022/08/26 11:07:45;;;;;;;;;;;;;;;-155.54;100.00;57697.75;4983102;28;19968;-71
2022/08/26 11:10:16;;;;;;;;;;;;;;;-155.54;100.00;57697.75;5001154;28;19994;-71
2022/08/26 11:12:41;;;;;;;;;;;;;;;-155.54;100.00;57697.75;4999737;28;20011;-70
2022/08/26 11:15:07;;;;;;;;;;;;;;;-155.54;100.00;57697.75;5000527;28;20123;-70
2022/08/26 11:17:44;;;;;;;;;;;;;;;-155.54;100.00;57697.75;4998801;28;20639;-71
2022/08/26 11:20:22;;;;;;;;;;;;;;;-155.54;100.00;57697.75;5000013;28;19968;-72
2022/08/26 11:22:50;;;;;;;;;;;;;;;-155.54;100.00;57697.75;4995052;28;19993;-71
2022/08/26 11:25:16;;;;;;;;;;;;;;;-155.54;100.00;57697.75;4998927;28;20471;-71
2022/08/26 11:27:45;;;;;;;;;;;;;;;-155.54;100.00;57697.75;4995858;28;19968;-70
2022/08/26 11:30:16;;;;;;;;;;;;;;;-155.54;100.00;57697.75;4992179;28;19983;-70
2022/08/26 11:32:42;;;;;;;;;;;;;;;-155.54;100.00;57697.75;5000270;28;20022;-70
2022/08/26 11:35:16;;;;;;;;;;;;;;;-155.54;100.00;57697.75;4999282;28;20436;-70
2022/08/26 11:37:43;;;;;;;;;;;;;;;-155.54;100.00;57697.75;4981658;28;20077;-70
2022/08/26 11:40:10;;;;;;;;;;;;;;;-155.54;100.00;57697.75;4976273;28;20055;-71
2022/08/26 11:42:38;;;;;;;;;;;;;;;-155.54;100.00;57697.75;4994017;28;19925;-71
2022/08/26 11:45:12;;;;;;;;;;;;;;;-155.54;100.00;57697.75;4996987;28;19929;-71
2022/08/26 11:47:37;;;;;;;;;;;;;;;-155.54;100.00;57697.75;4977942;28;19988;-70
2022/08/26 11:50:09;;;;;;;;;;;;;;;-155.54;100.00;57697.75;4999441;28;19933;-70
2022/08/26 11:52:35;;;;;;;;;;;;;;;-155.54;100.00;57697.75;4982348;28;19917;-70
2022/08/26 11:55:00;;;;;;;;;;;;;;;-155.54;100.00;57697.75;4979775;28;20216;-69
2022/08/26 11:57:25;;;;;;;;;;;;;;;-155.54;100.00;57697.75;4998094;28;20349;-69
2022/08/26 11:59:50;;;;;;;;;;;;;;;-155.54;100.00;57697.75;4980194;28;19949;-69
2022/08/26 12:02:16;;;;;;;;;;;;;;;-155.54;100.00;57697.75;4995771;28;20097;-69
2022/08/26 12:04:42;;;;;;;;;;;;;;;-155.54;100.00;57697.75;4997286;28;19952;-69
2022/08/26 12:07:08;;;;;;;;;;;;;;;-155.54;100.00;57697.75;4983204;28;19996;-69
2022/08/26 12:09:34;;;;;;;;;;;;;;;-155.54;100.00;57697.75;5000747;28;19995;-69
2022/08/26 12:12:09;;;;;;;;;;;;;;;-155.54;100.00;57697.75;4983091;28;19969;-70
2022/08/26 12:14:35;;;;;;;;;;;;;;;-155.54;100.00;57697.75;5000822;28;19988;-69
2022/08/26 12:17:18;;;;;;;;;;;;;;;-155.54;100.00;57697.75;4981732;28;20290;-69
2022/08/26 12:19:44;;;;;;;;;;;;;;;-155.54;100.00;57697.75;4983069;28;20326;-69